Time;durP1;ratioP1;P1;durP2;ratioP2;P2;SDS_P1;SDS_P2;PMS_P1;PMS_P2;Temp;Humidity;BMP_temperature;BMP_pressure;BME280_temperature;BME280_humidity;BME280_pressure;Samples;Min_cycle;Max_cycle;Signal;HPM_P1;HPM_P2
2023/09/24 00:00:26;;;;;;;5.47;3.13;;;;;;;;;;4988321;28;20047;-79
2023/09/24 00:02:51;;;;;;;5.45;3.40;;;;;;;;;;4982202;28;20033;-78
2023/09/24 00:05:17;;;;;;;6.72;3.20;;;;;;;;;;4963965;28;20117;-77
2023/09/24 00:07:42;;;;;;;5.25;3.38;;;;;;;;;;4983479;28;20402;-78
2023/09/24 00:10:08;;;;;;;5.68;3.40;;;;;;;;;;4966834;28;20030;-78
2023/09/24 00:12:33;;;;;;;6.47;3.90;;;;;;;;;;4961880;28;20251;-78
2023/09/24 00:14:59;;;;;;;5.25;3.33;;;;;;;;;;4981512;28;20027;-77
2023/09/24 00:17:24;;;;;;;5.35;3.35;;;;;;;;;;4985104;28;20476;-77
2023/09/24 00:19:49;;;;;;;7.07;3.53;;;;;;;;;;4969875;28;20027;-78
2023/09/24 00:22:15;;;;;;;7.35;3.55;;;;;;;;;;4964456;28;20031;-79
2023/09/24 00:24:42;;;;;;;6.05;3.60;;;;;;;;;;4972847;28;20120;-76
2023/09/24 00:27:09;;;;;;;6.70;3.63;;;;;;;;;;4985581;28;20026;-77
2023/09/24 00:29:34;;;;;;;9.30;3.83;;;;;;;;;;4965170;28;20487;-77
2023/09/24 00:32:00;;;;;;;6.82;3.60;;;;;;;;;;4967571;28;20025;-77
2023/09/24 00:34:25;;;;;;;6.50;3.78;;;;;;;;;;4969263;28;20030;-77
2023/09/24 00:36:51;;;;;;;6.95;3.72;;;;;;;;;;4989041;28;20031;-77
2023/09/24 00:39:17;;;;;;;6.70;3.70;;;;;;;;;;4987494;28;20027;-77
2023/09/24 00:41:45;;;;;;;8.63;3.95;;;;;;;;;;4992932;28;20027;-77
2023/09/24 00:44:13;;;;;;;5.60;3.63;;;;;;;;;;4991867;28;20022;-77
2023/09/24 00:46:39;;;;;;;6.65;3.95;;;;;;;;;;4988071;28;20027;-77
2023/09/24 00:49:04;;;;;;;5.47;3.90;;;;;;;;;;4969568;28;20038;-77
2023/09/24 00:51:30;;;;;;;6.15;3.97;;;;;;;;;;4970002;28;20080;-76
2023/09/24 00:53:55;;;;;;;6.88;3.88;;;;;;;;;;4973580;28;20030;-77
2023/09/24 00:56:21;;;;;;;6.07;3.72;;;;;;;;;;4974884;28;20089;-77
2023/09/24 00:58:53;;;;;;;5.50;3.90;;;;;;;;;;4971656;28;20033;-76
2023/09/24 01:01:24;;;;;;;6.18;3.70;;;;;;;;;;4985132;28;20026;-77
2023/09/24 01:03:50;;;;;;;7.55;4.20;;;;;;;;;;4987046;28;20023;-77
2023/09/24 01:06:17;;;;;;;9.00;3.70;;;;;;;;;;4967025;28;20038;-76
2023/09/24 01:08:43;;;;;;;5.45;3.42;;;;;;;;;;4986675;28;20429;-77
2023/09/24 01:11:08;;;;;;;6.05;3.92;;;;;;;;;;4968178;28;20698;-77
2023/09/24 01:13:46;;;;;;;6.68;4.05;;;;;;;;;;4987061;28;20426;-77
2023/09/24 01:16:12;;;;;;;8.30;4.25;;;;;;;;;;4987765;28;20552;-77
2023/09/24 01:18:44;;;;;;;6.40;4.00;;;;;;;;;;4973553;28;20026;-76
2023/09/24 01:21:13;;;;;;;7.05;3.60;;;;;;;;;;4985532;28;20475;-77
2023/09/24 01:23:40;;;;;;;6.13;3.75;;;;;;;;;;4983850;28;20030;-77
2023/09/24 01:26:07;;;;;;;9.07;3.83;;;;;;;;;;4970890;28;20090;-78
2023/09/24 01:28:33;;;;;;;7.30;3.42;;;;;;;;;;4984560;28;20022;-77
2023/09/24 01:30:58;;;;;;;6.18;3.70;;;;;;;;;;4985239;28;20041;-77
2023/09/24 01:33:23;;;;;;;5.28;3.60;;;;;;;;;;4975192;28;20109;-77
2023/09/24 01:35:49;;;;;;;6.95;3.95;;;;;;;;;;4973389;28;20117;-78
2023/09/24 01:38:16;;;;;;;6.28;3.80;;;;;;;;;;4973639;28;20069;-77
2023/09/24 01:40:41;;;;;;;6.30;3.63;;;;;;;;;;4980585;28;20026;-77
2023/09/24 01:43:08;;;;;;;7.80;3.67;;;;;;;;;;4988062;28;20498;-78
2023/09/24 01:45:34;;;;;;;5.80;3.75;;;;;;;;;;4990991;28;20049;-77
2023/09/24 01:48:00;;;;;;;6.03;3.88;;;;;;;;;;4986840;28;20026;-77
2023/09/24 01:50:28;;;;;;;6.57;3.85;;;;;;;;;;4988832;28;20350;-77
2023/09/24 01:52:59;;;;;;;7.80;4.10;;;;;;;;;;4992518;28;20036;-77
2023/09/24 01:55:28;;;;;;;6.82;3.75;;;;;;;;;;4967566;28;20490;-78
2023/09/24 01:57:55;;;;;;;6.60;3.75;;;;;;;;;;4988828;28;20114;-77
2023/09/24 02:00:23;;;;;;;6.40;3.80;;;;;;;;;;4984683;28;20070;-77
2023/09/24 02:02:59;;;;;;;6.32;3.92;;;;;;;;;;4971569;28;20023;-79
2023/09/24 02:05:25;;;;;;;4.43;3.13;;;;;;;;;;4995905;28;20033;-77
2023/09/24 02:07:50;;;;;;;6.70;3.60;;;;;;;;;;4972623;28;20022;-78
2023/09/24 02:10:20;;;;;;;5.80;3.38;;;;;;;;;;4984848;28;20080;-78
2023/09/24 02:12:46;;;;;;;5.97;3.67;;;;;;;;;;4987905;28;20555;-78
2023/09/24 02:15:18;;;;;;;7.40;3.90;;;;;;;;;;4989071;28;20077;-78
2023/09/24 02:17:48;;;;;;;7.10;3.90;;;;;;;;;;4966035;28;20053;-78
2023/09/24 02:20:18;;;;;;;5.85;3.42;;;;;;;;;;4984419;28;20117;-78
2023/09/24 02:22:45;;;;;;;6.97;4.15;;;;;;;;;;4982132;28;20097;-77
2023/09/24 02:25:13;;;;;;;7.75;4.05;;;;;;;;;;4970470;28;20050;-77
2023/09/24 02:27:39;;;;;;;5.95;3.63;;;;;;;;;;4983627;28;20026;-78
2023/09/24 02:30:05;;;;;;;6.38;4.10;;;;;;;;;;4983774;28;20029;-78
2023/09/24 02:32:32;;;;;;;6.35;4.07;;;;;;;;;;4963995;28;20030;-77
2023/09/24 02:34:57;;;;;;;6.82;3.92;;;;;;;;;;4988038;28;20453;-80
2023/09/24 02:37:22;;;;;;;5.88;3.75;;;;;;;;;;4983492;28;20122;-81
2023/09/24 02:39:48;;;;;;;6.72;3.72;;;;;;;;;;4986630;28;20474;-83
2023/09/24 02:42:14;;;;;;;7.05;4.10;;;;;;;;;;4983696;28;20483;-83
2023/09/24 02:44:39;;;;;;;7.93;3.72;;;;;;;;;;4983127;28;20390;-83
2023/09/24 02:47:06;;;;;;;8.20;3.97;;;;;;;;;;4967604;28;20029;-84
2023/09/24 02:49:32;;;;;;;7.82;4.28;;;;;;;;;;4966114;28;20108;-84
2023/09/24 02:51:57;;;;;;;5.97;4.22;;;;;;;;;;4981996;28;20105;-83
2023/09/24 02:54:23;;;;;;;6.80;3.85;;;;;;;;;;4988627;28;20124;-84
2023/09/24 02:56:48;;;;;;;6.72;3.75;;;;;;;;;;4967549;28;20035;-84
2023/09/24 02:59:14;;;;;;;6.22;4.03;;;;;;;;;;4979325;28;20077;-83
2023/09/24 03:01:40;;;;;;;9.07;4.32;;;;;;;;;;4980151;28;20035;-83
2023/09/24 03:04:07;;;;;;;6.43;3.85;;;;;;;;;;4983566;28;20034;-84
2023/09/24 03:06:33;;;;;;;4.85;3.67;;;;;;;;;;4966782;28;20497;-82
2023/09/24 03:08:58;;;;;;;7.20;3.80;;;;;;;;;;4967263;28;20022;-81
2023/09/24 03:11:24;;;;;;;5.95;3.75;;;;;;;;;;4967116;28;20553;-82
2023/09/24 03:13:50;;;;;;;6.40;3.65;;;;;;;;;;4985633;28;20390;-82
2023/09/24 03:16:15;;;;;;;6.30;3.80;;;;;;;;;;4984084;28;20551;-81
2023/09/24 03:18:41;;;;;;;8.25;4.00;;;;;;;;;;4983030;28;20022;-81
2023/09/24 03:21:11;;;;;;;5.90;3.65;;;;;;;;;;4960962;28;20102;-81
2023/09/24 03:23:37;;;;;;;5.82;3.38;;;;;;;;;;4983974;28;20109;-77
2023/09/24 03:26:03;;;;;;;6.75;3.97;;;;;;;;;;4970325;28;20145;-77
2023/09/24 03:28:29;;;;;;;6.80;3.60;;;;;;;;;;4985402;28;20077;-77
2023/09/24 03:30:54;;;;;;;6.55;4.25;;;;;;;;;;4983948;28;20030;-77
2023/09/24 03:33:19;;;;;;;6.28;3.80;;;;;;;;;;4978648;28;20030;-76
2023/09/24 03:35:47;;;;;;;6.00;4.20;;;;;;;;;;4964440;28;20032;-77
2023/09/24 03:38:12;;;;;;;8.02;4.03;;;;;;;;;;4984447;28;20061;-82
2023/09/24 03:40:37;;;;;;;5.80;3.67;;;;;;;;;;4987793;28;20021;-82
2023/09/24 03:43:03;;;;;;;6.60;4.00;;;;;;;;;;4967548;28;20026;-82
2023/09/24 03:45:28;;;;;;;6.07;4.10;;;;;;;;;;4971694;28;20125;-82
2023/09/24 03:47:54;;;;;;;5.57;3.83;;;;;;;;;;4983899;28;20552;-83
2023/09/24 03:50:19;;;;;;;8.32;3.92;;;;;;;;;;4968337;28;20054;-82
2023/09/24 03:52:47;;;;;;;5.50;3.80;;;;;;;;;;4985027;28;20030;-81
2023/09/24 03:55:13;;;;;;;7.15;4.43;;;;;;;;;;4985658;28;20026;-84
2023/09/24 03:57:39;;;;;;;7.65;4.07;;;;;;;;;;4982049;28;20450;-84
2023/09/24 04:00:11;;;;;;;7.70;4.10;;;;;;;;;;4967030;28;20121;-82
2023/09/24 04:02:37;;;;;;;5.47;3.93;;;;;;;;;;4968006;28;20121;-84
2023/09/24 04:05:03;;;;;;;5.95;4.03;;;;;;;;;;4968499;28;20038;-82
2023/09/24 04:07:29;;;;;;;6.20;3.78;;;;;;;;;;4982933;28;20100;-83
2023/09/24 04:09:54;;;;;;;6.35;3.90;;;;;;;;;;4982373;28;20062;-80
2023/09/24 04:12:19;;;;;;;5.78;3.67;;;;;;;;;;4985385;28;20022;-84
2023/09/24 04:14:45;;;;;;;6.00;3.80;;;;;;;;;;4983087;28;20313;-84
2023/09/24 04:17:11;;;;;;;5.65;4.10;;;;;;;;;;4983463;28;20034;-84
2023/09/24 04:19:36;;;;;;;6.28;3.88;;;;;;;;;;4961657;28;20026;-83
2023/09/24 04:22:02;;;;;;;7.47;3.90;;;;;;;;;;4969105;28;20572;-83
2023/09/24 04:24:27;;;;;;;6.53;3.97;;;;;;;;;;4986226;28;20040;-83
2023/09/24 04:26:53;;;;;;;6.88;4.00;;;;;;;;;;4965724;28;20019;-77
2023/09/24 04:29:19;;;;;;;6.03;3.65;;;;;;;;;;4961514;28;20033;-77
2023/09/24 04:31:45;;;;;;;6.13;3.92;;;;;;;;;;4965107;28;20026;-76
2023/09/24 04:34:12;;;;;;;5.35;3.75;;;;;;;;;;4984578;28;20105;-81
2023/09/24 04:36:39;;;;;;;5.57;3.65;;;;;;;;;;4967495;28;20070;-81
2023/09/24 04:39:06;;;;;;;8.93;4.30;;;;;;;;;;4965155;28;20113;-81
2023/09/24 04:41:32;;;;;;;5.78;3.72;;;;;;;;;;4965368;28;20455;-82
2023/09/24 04:43:57;;;;;;;6.20;3.70;;;;;;;;;;4983785;28;20026;-79
2023/09/24 04:46:24;;;;;;;5.82;3.65;;;;;;;;;;4965510;28;20113;-82
2023/09/24 04:48:49;;;;;;;6.03;3.90;;;;;;;;;;4986024;28;20032;-82
2023/09/24 04:51:14;;;;;;;8.65;3.65;;;;;;;;;;4967767;28;20030;-82
2023/09/24 04:53:40;;;;;;;5.78;3.50;;;;;;;;;;4965170;28;20038;-82
2023/09/24 04:56:08;;;;;;;6.93;3.70;;;;;;;;;;4965539;28;20678;-81
2023/09/24 04:58:34;;;;;;;8.38;4.28;;;;;;;;;;4966347;28;20117;-78
2023/09/24 05:01:07;;;;;;;5.57;3.55;;;;;;;;;;4982099;28;20034;-77
2023/09/24 05:03:35;;;;;;;4.80;3.30;;;;;;;;;;4968708;28;20117;-78
2023/09/24 05:06:00;;;;;;;5.50;3.85;;;;;;;;;;4973583;28;20030;-77
2023/09/24 05:08:27;;;;;;;9.32;4.60;;;;;;;;;;4985183;28;20491;-78
2023/09/24 05:10:52;;;;;;;7.40;4.28;;;;;;;;;;4984741;28;20014;-77
2023/09/24 05:13:17;;;;;;;6.68;3.80;;;;;;;;;;4982159;28;20031;-77
2023/09/24 05:15:54;;;;;;;6.28;3.83;;;;;;;;;;4973947;28;20069;-77
2023/09/24 05:18:23;;;;;;;5.75;3.42;;;;;;;;;;4982946;28;20030;-77
2023/09/24 05:20:48;;;;;;;7.18;4.57;;;;;;;;;;4986624;28;20062;-77
2023/09/24 05:23:13;;;;;;;7.22;3.67;;;;;;;;;;4965575;28;20034;-77
2023/09/24 05:25:39;;;;;;;5.90;3.90;;;;;;;;;;4968243;28;20026;-78
2023/09/24 05:28:04;;;;;;;6.10;3.72;;;;;;;;;;4971170;28;20022;-77
2023/09/24 05:30:30;;;;;;;6.70;3.95;;;;;;;;;;4989898;28;20156;-77
2023/09/24 05:32:55;;;;;;;6.25;3.78;;;;;;;;;;4983968;28;20041;-77
2023/09/24 05:35:22;;;;;;;5.35;3.55;;;;;;;;;;4984422;28;20117;-81
2023/09/24 05:37:47;;;;;;;7.95;4.20;;;;;;;;;;4980449;28;20049;-81
2023/09/24 05:40:14;;;;;;;5.78;3.55;;;;;;;;;;4987086;28;20026;-82
2023/09/24 05:42:39;;;;;;;5.72;3.42;;;;;;;;;;4969069;28;20058;-80
2023/09/24 05:45:05;;;;;;;7.05;3.65;;;;;;;;;;4966686;28;20050;-81
2023/09/24 05:47:31;;;;;;;5.07;3.53;;;;;;;;;;4988303;28;20061;-82
2023/09/24 05:49:56;;;;;;;6.97;3.75;;;;;;;;;;4965223;28;22381;-81
2023/09/24 05:52:21;;;;;;;6.03;3.65;;;;;;;;;;4984769;28;20084;-81
2023/09/24 05:54:47;;;;;;;7.03;3.67;;;;;;;;;;4984448;28;20062;-81
2023/09/24 05:57:12;;;;;;;6.80;3.80;;;;;;;;;;4968992;28;20034;-81
2023/09/24 05:59:37;;;;;;;6.90;3.80;;;;;;;;;;4984499;28;20027;-82
2023/09/24 06:02:03;;;;;;;7.15;3.60;;;;;;;;;;4983481;28;20550;-82
2023/09/24 06:04:30;;;;;;;5.85;3.60;;;;;;;;;;4970055;28;20034;-82
2023/09/24 06:06:55;;;;;;;7.53;3.53;;;;;;;;;;4986463;28;20382;-76
2023/09/24 06:09:21;;;;;;;5.95;3.50;;;;;;;;;;4975239;28;20030;-77
2023/09/24 06:11:48;;;;;;;5.80;3.78;;;;;;;;;;4983411;28;20022;-78
2023/09/24 06:14:14;;;;;;;6.93;3.72;;;;;;;;;;4984504;28;20101;-76
2023/09/24 06:16:39;;;;;;;7.85;3.80;;;;;;;;;;4993081;28;20176;-76
2023/09/24 06:19:05;;;;;;;7.15;3.90;;;;;;;;;;4988829;28;20034;-76
2023/09/24 06:21:31;;;;;;;8.52;3.95;;;;;;;;;;4983616;28;20494;-84
2023/09/24 06:23:57;;;;;;;4.75;3.28;;;;;;;;;;4970046;28;20044;-83
2023/09/24 06:26:25;;;;;;;6.22;3.47;;;;;;;;;;4963370;28;20033;-84
2023/09/24 06:28:50;;;;;;;6.75;3.67;;;;;;;;;;4983986;28;20498;-84
2023/09/24 06:31:16;;;;;;;5.18;3.50;;;;;;;;;;4969368;28;20030;-84
2023/09/24 06:33:41;;;;;;;6.22;3.80;;;;;;;;;;4970177;28;20031;-83
2023/09/24 06:36:09;;;;;;;7.28;3.50;;;;;;;;;;4967804;28;20022;-84
2023/09/24 06:38:34;;;;;;;7.40;3.38;;;;;;;;;;4983036;28;20488;-84
2023/09/24 06:41:00;;;;;;;7.38;3.70;;;;;;;;;;4986877;28;20038;-83
2023/09/24 06:43:26;;;;;;;6.47;3.47;;;;;;;;;;4973333;28;20034;-85
2023/09/24 06:45:55;;;;;;;6.85;3.30;;;;;;;;;;4984301;28;20104;-84
2023/09/24 06:48:24;;;;;;;6.65;3.10;;;;;;;;;;4965780;28;20558;-85
2023/09/24 06:50:50;;;;;;;6.05;2.97;;;;;;;;;;4979584;28;20030;-82
2023/09/24 06:53:16;;;;;;;6.18;3.50;;;;;;;;;;4972539;28;20036;-85
2023/09/24 06:55:42;;;;;;;5.93;3.47;;;;;;;;;;4985817;28;20114;-85
2023/09/24 06:58:07;;;;;;;6.55;3.85;;;;;;;;;;4981471;28;20662;-85
2023/09/24 07:00:33;;;;;;;6.75;4.00;;;;;;;;;;4962485;28;20038;-86
2023/09/24 07:02:58;;;;;;;7.40;4.22;;;;;;;;;;4980978;28;20101;-85
2023/09/24 07:05:24;;;;;;;5.95;3.85;;;;;;;;;;4985946;28;20030;-84
2023/09/24 07:07:49;;;;;;;6.72;4.10;;;;;;;;;;4969505;28;20027;-84
2023/09/24 07:10:15;;;;;;;6.50;4.20;;;;;;;;;;4971990;28;20041;-85
2023/09/24 07:12:42;;;;;;;6.60;4.40;;;;;;;;;;4986280;28;20106;-84
2023/09/24 07:15:08;;;;;;;6.60;5.00;;;;;;;;;;4966132;28;20291;-84
2023/09/24 07:17:35;;;;;;;6.95;4.30;;;;;;;;;;4980764;28;20478;-85
2023/09/24 07:20:01;;;;;;;7.38;4.00;;;;;;;;;;4987089;28;20037;-81
2023/09/24 07:22:26;;;;;;;6.55;4.03;;;;;;;;;;4965868;28;20031;-85
2023/09/24 07:24:55;;;;;;;8.65;4.53;;;;;;;;;;4987564;28;20042;-85
2023/09/24 07:27:20;;;;;;;7.70;4.90;;;;;;;;;;4971564;28;20034;-85
2023/09/24 07:29:46;;;;;;;8.55;4.25;;;;;;;;;;4966180;28;20118;-83
2023/09/24 07:32:13;;;;;;;8.50;4.40;;;;;;;;;;4967591;28;20259;-81
2023/09/24 07:34:38;;;;;;;6.97;4.25;;;;;;;;;;4973452;28;20527;-84
2023/09/24 07:37:06;;;;;;;7.25;4.35;;;;;;;;;;4973184;28;20147;-84
2023/09/24 07:39:35;;;;;;;7.22;4.35;;;;;;;;;;4982155;28;20087;-78
2023/09/24 07:42:00;;;;;;;6.13;4.60;;;;;;;;;;4956688;28;20112;-79
2023/09/24 07:44:29;;;;;;;8.68;4.30;;;;;;;;;;4956639;28;20153;-78
2023/09/24 07:46:55;;;;;;;9.55;4.53;;;;;;;;;;4953500;28;20026;-78
2023/09/24 07:49:20;;;;;;;9.40;4.47;;;;;;;;;;4975006;28;20073;-79
2023/09/24 07:51:45;;;;;;;8.30;4.55;;;;;;;;;;4955163;28;20065;-77
2023/09/24 07:54:14;;;;;;;7.30;4.20;;;;;;;;;;4972493;28;20666;-77
2023/09/24 07:56:42;;;;;;;8.60;4.50;;;;;;;;;;4979505;28;20076;-80
2023/09/24 07:59:11;;;;;;;7.22;4.22;;;;;;;;;;4961101;28;20092;-80
2023/09/24 08:01:36;;;;;;;7.95;4.32;;;;;;;;;;4958436;28;20035;-79
2023/09/24 08:04:06;;;;;;;6.05;4.30;;;;;;;;;;4951390;28;20221;-78
2023/09/24 08:06:31;;;;;;;9.80;4.65;;;;;;;;;;4963648;28;20613;-77
2023/09/24 08:08:58;;;;;;;9.05;4.32;;;;;;;;;;4977141;28;20035;-77
2023/09/24 08:11:23;;;;;;;11.15;4.50;;;;;;;;;;4960779;28;20033;-78
2023/09/24 08:13:49;;;;;;;7.97;4.03;;;;;;;;;;4973651;28;20034;-78
2023/09/24 08:16:15;;;;;;;7.10;4.10;;;;;;;;;;4976948;28;20088;-80
2023/09/24 08:18:41;;;;;;;7.53;4.05;;;;;;;;;;4961642;28;20104;-78
2023/09/24 08:21:07;;;;;;;8.32;4.25;;;;;;;;;;4975493;28;20441;-79
2023/09/24 08:23:37;;;;;;;8.32;3.78;;;;;;;;;;4953667;28;20027;-79
2023/09/24 08:26:03;;;;;;;8.48;4.22;;;;;;;;;;4959253;28;20906;-78
2023/09/24 08:28:28;;;;;;;8.65;4.57;;;;;;;;;;4955846;28;20423;-78
2023/09/24 08:30:54;;;;;;;9.32;3.95;;;;;;;;;;4954250;28;20022;-78
2023/09/24 08:33:19;;;;;;;8.40;4.20;;;;;;;;;;4954377;28;20026;-81
2023/09/24 08:35:44;;;;;;;9.60;5.13;;;;;;;;;;4977369;28;20104;-78
2023/09/24 08:38:10;;;;;;;6.80;4.30;;;;;;;;;;4985102;28;20503;-80
2023/09/24 08:40:36;;;;;;;8.65;4.80;;;;;;;;;;4978997;28;20121;-78
2023/09/24 08:43:09;;;;;;;8.57;4.00;;;;;;;;;;4961194;28;20038;-80
2023/09/24 08:45:35;;;;;;;7.78;4.00;;;;;;;;;;4953613;28;20054;-81
2023/09/24 08:48:07;;;;;;;7.40;3.95;;;;;;;;;;4965794;28;20472;-79
2023/09/24 08:50:36;;;;;;;10.38;4.30;;;;;;;;;;4964604;28;20050;-80
2023/09/24 08:53:05;;;;;;;9.98;3.90;;;;;;;;;;4959605;28;20026;-79
2023/09/24 08:55:33;;;;;;;7.70;3.83;;;;;;;;;;4962180;28;20522;-79
2023/09/24 08:57:58;;;;;;;6.90;3.70;;;;;;;;;;4966789;28;20034;-78
2023/09/24 09:00:27;;;;;;;7.40;3.65;;;;;;;;;;4963640;28;20027;-80
2023/09/24 09:02:52;;;;;;;6.85;3.75;;;;;;;;;;4955839;28;20520;-78
2023/09/24 09:05:25;;;;;;;6.45;3.17;;;;;;;;;;4963016;28;20038;-79
2023/09/24 09:08:02;;;;;;;9.55;3.35;;;;;;;;;;4967043;28;20515;-79
2023/09/24 09:10:30;;;;;;;6.47;3.33;;;;;;;;;;4977066;28;20125;-79
2023/09/24 09:13:17;;;;;;;6.25;3.20;;;;;;;;;;4953875;28;20483;-81
2023/09/24 09:15:43;;;;;;;7.55;3.40;;;;;;;;;;4957880;28;20118;-80
2023/09/24 09:18:25;;;;;;;7.38;3.10;;;;;;;;;;4980602;28;20030;-79
2023/09/24 09:20:58;;;;;;;5.13;2.50;;;;;;;;;;4958904;28;20154;-81
2023/09/24 09:23:50;;;;;;;;;;;;;;;;;;4975211;28;20030;-79
2023/09/24 09:26:15;;;;;;;7.80;2.20;;;;;;;;;;4973460;28;20028;-79
2023/09/24 09:28:44;;;;;;;5.40;2.35;;;;;;;;;;4977904;28;20372;-80
2023/09/24 09:31:11;;;;;;;9.45;2.20;;;;;;;;;;4962609;28;20023;-79
2023/09/24 09:33:42;;;;;;;4.95;1.80;;;;;;;;;;4952340;28;20446;-80
2023/09/24 09:36:29;;;;;;;5.75;2.13;;;;;;;;;;4958538;28;20069;-81
2023/09/24 09:38:57;;;;;;;5.97;2.10;;;;;;;;;;4971949;28;20034;-84
2023/09/24 09:41:24;;;;;;;5.57;1.80;;;;;;;;;;4942552;28;20030;-83
2023/09/24 09:43:52;;;;;;;4.32;1.77;;;;;;;;;;4970800;28;20662;-80
2023/09/24 09:46:19;;;;;;;4.22;1.60;;;;;;;;;;4960382;28;20038;-85
2023/09/24 09:48:52;;;;;;;4.45;1.77;;;;;;;;;;4978547;28;20522;-80
2023/09/24 09:51:19;;;;;;;5.30;1.95;;;;;;;;;;4956967;28;20033;-84
2023/09/24 09:53:49;;;;;;;4.72;1.90;;;;;;;;;;4979649;28;20061;-84
2023/09/24 09:56:15;;;;;;;4.15;1.52;;;;;;;;;;4973388;28;20088;-83
2023/09/24 09:58:41;;;;;;;6.13;1.60;;;;;;;;;;4966099;28;20025;-84
2023/09/24 10:01:07;;;;;;;6.25;2.22;;;;;;;;;;4954919;28;20042;-83
2023/09/24 10:03:37;;;;;;;5.75;1.60;;;;;;;;;;4960067;28;20415;-83
2023/09/24 10:06:04;;;;;;;5.00;1.63;;;;;;;;;;4977665;28;20229;-84
2023/09/24 10:08:33;;;;;;;3.38;1.50;;;;;;;;;;4953558;28;20045;-85
2023/09/24 10:11:00;;;;;;;4.10;1.35;;;;;;;;;;4957884;28;20042;-83
2023/09/24 10:13:51;;;;;;;3.72;1.48;;;;;;;;;;4952213;28;20027;-84
2023/09/24 10:16:25;;;;;;;4.68;1.35;;;;;;;;;;4955711;28;20104;-84
2023/09/24 10:18:58;;;;;;;3.17;1.13;;;;;;;;;;4962326;28;20128;-83
2023/09/24 10:21:44;;;;;;;4.22;1.58;;;;;;;;;;4980759;28;20030;-84
2023/09/24 10:24:09;;;;;;;4.80;1.30;;;;;;;;;;4974142;28;20066;-83
2023/09/24 10:27:01;;;;;;;3.05;0.95;;;;;;;;;;4963902;28;20042;-84
2023/09/24 10:29:45;;;;;;;3.42;1.33;;;;;;;;;;4956406;28;20026;-84
2023/09/24 10:32:14;;;;;;;3.45;1.10;;;;;;;;;;4963398;28;20030;-84
2023/09/24 10:34:55;;;;;;;4.18;1.25;;;;;;;;;;4974010;28;20391;-84
2023/09/24 10:37:20;;;;;;;3.50;1.20;;;;;;;;;;4963899;28;20031;-82
2023/09/24 10:39:58;;;;;;;4.90;1.30;;;;;;;;;;4955867;28;20045;-84
2023/09/24 10:42:25;;;;;;;3.38;1.00;;;;;;;;;;4956768;28;20081;-83
2023/09/24 10:45:09;;;;;;;3.17;1.38;;;;;;;;;;4951391;28;20085;-83
2023/09/24 10:47:38;;;;;;;4.95;1.10;;;;;;;;;;4948232;28;20034;-82
2023/09/24 10:50:18;;;;;;;3.28;1.15;;;;;;;;;;4981549;28;20105;-82
2023/09/24 10:53:02;;;;;;;5.07;1.10;;;;;;;;;;4973536;28;20283;-82
2023/09/24 10:55:30;;;;;;;4.57;1.00;;;;;;;;;;4974424;28;20023;-81
2023/09/24 10:58:00;;;;;;;5.13;1.25;;;;;;;;;;4957853;28;20490;-82
2023/09/24 11:00:26;;;;;;;3.13;1.20;;;;;;;;;;4957324;28;20351;-82
2023/09/24 11:03:00;;;;;;;5.78;1.30;;;;;;;;;;4970854;28;20479;-81
2023/09/24 11:05:28;;;;;;;1.95;0.90;;;;;;;;;;4977042;28;20031;-82
2023/09/24 11:07:54;;;;;;;2.13;1.30;;;;;;;;;;4979215;28;20662;-80
2023/09/24 11:10:20;;;;;;;4.05;1.10;;;;;;;;;;4961071;28;20061;-81
2023/09/24 11:12:52;;;;;;;4.13;1.20;;;;;;;;;;4975671;28;20575;-82
2023/09/24 11:15:19;;;;;;;4.28;1.70;;;;;;;;;;4959484;28;20105;-83
2023/09/24 11:17:45;;;;;;;4.57;1.45;;;;;;;;;;4956964;28;20080;-81
2023/09/24 11:20:12;;;;;;;3.53;1.10;;;;;;;;;;4960617;28;20027;-82
2023/09/24 11:22:38;;;;;;;3.97;1.10;;;;;;;;;;4972622;28;20133;-83
2023/09/24 11:25:09;;;;;;;4.82;1.13;;;;;;;;;;4953037;28;20027;-80
2023/09/24 11:27:44;;;;;;;2.60;0.90;;;;;;;;;;4974424;28;20037;-81
2023/09/24 11:30:10;;;;;;;4.07;0.95;;;;;;;;;;4974431;28;20414;-81
2023/09/24 11:32:35;;;;;;;3.05;1.10;;;;;;;;;;4954801;28;20031;-79
2023/09/24 11:35:14;;;;;;;2.75;1.10;;;;;;;;;;4956115;28;20034;-79
2023/09/24 11:37:49;;;;;;;2.70;1.08;;;;;;;;;;4953077;28;20201;-79
2023/09/24 11:40:25;;;;;;;5.10;1.10;;;;;;;;;;4969089;28;20031;-80
2023/09/24 11:42:53;;;;;;;3.80;1.20;;;;;;;;;;4972731;28;20030;-80
2023/09/24 11:45:42;;;;;;;3.88;1.20;;;;;;;;;;4977701;28;20034;-79
2023/09/24 11:48:10;;;;;;;3.28;1.10;;;;;;;;;;4962344;28;20054;-79
2023/09/24 11:50:37;;;;;;;4.75;1.33;;;;;;;;;;4970006;28;20026;-80
2023/09/24 11:53:03;;;;;;;2.35;0.90;;;;;;;;;;4960157;28;20033;-80
2023/09/24 11:55:28;;;;;;;3.58;1.20;;;;;;;;;;4956990;28;20910;-79
2023/09/24 11:57:53;;;;;;;2.35;0.95;;;;;;;;;;4954402;28;20080;-83
2023/09/24 12:00:19;;;;;;;5.00;1.02;;;;;;;;;;4959321;28;20419;-81
2023/09/24 12:02:44;;;;;;;3.58;0.90;;;;;;;;;;4981693;28;20244;-82
2023/09/24 12:05:12;;;;;;;5.10;1.30;;;;;;;;;;4971366;28;20549;-82
2023/09/24 12:07:38;;;;;;;2.97;1.00;;;;;;;;;;4986331;28;20119;-82
2023/09/24 12:10:04;;;;;;;2.78;0.90;;;;;;;;;;4957940;28;20606;-82
2023/09/24 12:12:29;;;;;;;3.05;0.93;;;;;;;;;;4991776;28;20026;-82
2023/09/24 12:14:56;;;;;;;2.70;1.20;;;;;;;;;;4973230;28;20494;-81
2023/09/24 12:17:22;;;;;;;2.85;0.98;;;;;;;;;;4964545;28;20486;-83
2023/09/24 12:19:52;;;;;;;5.95;1.42;;;;;;;;;;4968995;28;20028;-82
2023/09/24 12:22:19;;;;;;;2.72;1.00;;;;;;;;;;4974645;28;20038;-82
2023/09/24 12:24:44;;;;;;;2.92;0.95;;;;;;;;;;4978457;28;20105;-82
2023/09/24 12:27:09;;;;;;;3.58;1.15;;;;;;;;;;4962772;28;20077;-83
2023/09/24 12:29:35;;;;;;;3.70;1.45;;;;;;;;;;4970013;28;20496;-81
2023/09/24 12:32:00;;;;;;;3.45;1.05;;;;;;;;;;4978228;28;20042;-82
2023/09/24 12:34:26;;;;;;;3.95;1.25;;;;;;;;;;4979751;28;20033;-82
2023/09/24 12:36:54;;;;;;;3.45;0.95;;;;;;;;;;4965450;28;20022;-82
2023/09/24 12:39:24;;;;;;;4.60;1.30;;;;;;;;;;4959519;28;20509;-81
2023/09/24 12:41:51;;;;;;;3.88;1.10;;;;;;;;;;4976616;28;20026;-82
2023/09/24 12:44:19;;;;;;;2.90;1.08;;;;;;;;;;4986406;28;20042;-83
2023/09/24 12:46:46;;;;;;;2.80;1.40;;;;;;;;;;4979238;28;20452;-82
2023/09/24 12:49:11;;;;;;;4.43;1.10;;;;;;;;;;4965693;28;20068;-82
2023/09/24 12:51:37;;;;;;;4.38;1.38;;;;;;;;;;4964816;28;20062;-81
2023/09/24 12:54:02;;;;;;;2.83;0.90;;;;;;;;;;4961323;28;20487;-82
2023/09/24 12:56:28;;;;;;;2.75;1.17;;;;;;;;;;4977012;28;20042;-80
2023/09/24 12:59:01;;;;;;;3.80;1.23;;;;;;;;;;4974893;28;20387;-82
2023/09/24 13:01:26;;;;;;;2.65;1.00;;;;;;;;;;4952510;28;20845;-82
2023/09/24 13:03:52;;;;;;;4.80;1.25;;;;;;;;;;4981512;28;20053;-81
2023/09/24 13:06:18;;;;;;;2.72;1.10;;;;;;;;;;4958349;28;20504;-82
2023/09/24 13:08:44;;;;;;;3.10;1.08;;;;;;;;;;4962855;28;20371;-81
2023/09/24 13:11:13;;;;;;;5.97;1.23;;;;;;;;;;4952020;28;20050;-79
2023/09/24 13:13:39;;;;;;;3.58;1.10;;;;;;;;;;4958214;28;20061;-80
2023/09/24 13:16:08;;;;;;;3.10;1.15;;;;;;;;;;4957967;28;20030;-79
2023/09/24 13:18:33;;;;;;;2.45;1.13;;;;;;;;;;4948774;28;20052;-79
2023/09/24 13:20:59;;;;;;;3.40;1.00;;;;;;;;;;4965367;28;20390;-80
2023/09/24 13:23:26;;;;;;;2.00;1.10;;;;;;;;;;4969499;28;20030;-79
2023/09/24 13:25:52;;;;;;;4.88;1.05;;;;;;;;;;4980490;28;20386;-80
2023/09/24 13:28:17;;;;;;;2.55;1.00;;;;;;;;;;4989102;28;20045;-80
2023/09/24 13:30:43;;;;;;;2.75;1.00;;;;;;;;;;4966699;28;20121;-80
2023/09/24 13:33:10;;;;;;;3.63;1.17;;;;;;;;;;4969665;28;20034;-79
2023/09/24 13:35:44;;;;;;;2.72;1.23;;;;;;;;;;4952388;28;20086;-80
2023/09/24 13:38:09;;;;;;;2.95;0.95;;;;;;;;;;4955924;28;20356;-78
2023/09/24 13:40:38;;;;;;;2.15;1.10;;;;;;;;;;4977593;28;20083;-80
2023/09/24 13:43:05;;;;;;;2.67;1.00;;;;;;;;;;4984069;28;20036;-80
2023/09/24 13:45:31;;;;;;;4.00;1.23;;;;;;;;;;4977923;28;20386;-80
2023/09/24 13:47:56;;;;;;;4.00;1.10;;;;;;;;;;4975051;28;20030;-80
2023/09/24 13:50:22;;;;;;;3.08;1.30;;;;;;;;;;4984228;28;20408;-80
2023/09/24 13:52:48;;;;;;;3.45;1.50;;;;;;;;;;4982907;28;20050;-80
2023/09/24 13:55:13;;;;;;;3.30;1.27;;;;;;;;;;4958745;28;20034;-79
2023/09/24 13:57:39;;;;;;;4.18;1.02;;;;;;;;;;4966711;28;20038;-80
2023/09/24 14:00:06;;;;;;;3.85;1.20;;;;;;;;;;4985484;28;20045;-80
2023/09/24 14:02:34;;;;;;;3.38;1.00;;;;;;;;;;4962417;28;20033;-79
2023/09/24 14:04:59;;;;;;;2.55;1.00;;;;;;;;;;4978605;28;20030;-80
2023/09/24 14:07:25;;;;;;;1.90;1.10;;;;;;;;;;4964536;28;20038;-80
2023/09/24 14:12:34;;;;;;;2.25;1.20;;;;;;;;;;4976562;28;20085;-80
2023/09/24 14:15:03;;;;;;;4.03;1.00;;;;;;;;;;4963416;28;20483;-80
2023/09/24 14:17:28;;;;;;;2.42;1.08;;;;;;;;;;4975145;28;20058;-80
2023/09/24 14:19:55;;;;;;;3.00;1.00;;;;;;;;;;4967837;28;20149;-80
2023/09/24 14:22:21;;;;;;;2.17;1.00;;;;;;;;;;4973688;28;20037;-80
2023/09/24 14:24:46;;;;;;;1.90;0.95;;;;;;;;;;4964674;28;20329;-79
2023/09/24 14:27:11;;;;;;;3.10;1.05;;;;;;;;;;4955421;28;20043;-80
2023/09/24 14:29:37;;;;;;;4.07;1.00;;;;;;;;;;4959071;28;20601;-80
2023/09/24 14:32:02;;;;;;;2.80;1.10;;;;;;;;;;4962039;28;20022;-81
2023/09/24 14:34:27;;;;;;;3.97;1.02;;;;;;;;;;4984600;28;20065;-80
2023/09/24 14:36:53;;;;;;;2.92;0.90;;;;;;;;;;4959186;28;20372;-80
2023/09/24 14:39:18;;;;;;;1.70;0.80;;;;;;;;;;4964625;28;20034;-80
2023/09/24 14:41:45;;;;;;;1.88;0.80;;;;;;;;;;4964615;28;20053;-80
2023/09/24 14:44:11;;;;;;;4.22;1.20;;;;;;;;;;4977051;28;20027;-80
2023/09/24 14:46:39;;;;;;;4.60;1.40;;;;;;;;;;4960880;28;20033;-80